sensor_id;sensor_type;location;lat;lon;timestamp;P1;durP1;ratioP1;P2;durP2;ratioP2
65130;SDS011;51709;54.912;8.316;2023-11-18T00:02:59;5.57;;;3.55;;
65130;SDS011;51709;54.912;8.316;2023-11-18T00:08:22;9.53;;;3.33;;
65130;SDS011;51709;54.912;8.316;2023-11-18T00:13:48;3.80;;;2.80;;
65130;SDS011;51709;54.912;8.316;2023-11-18T00:19:08;5.40;;;3.77;;
65130;SDS011;51709;54.912;8.316;2023-11-18T00:24:29;4.80;;;2.40;;
65130;SDS011;51709;54.912;8.316;2023-11-18T00:29:50;4.15;;;2.60;;
65130;SDS011;51709;54.912;8.316;2023-11-18T00:35:11;8.20;;;3.03;;
65130;SDS011;51709;54.912;8.316;2023-11-18T00:40:31;6.30;;;3.38;;
65130;SDS011;51709;54.912;8.316;2023-11-18T00:45:52;4.80;;;2.60;;
65130;SDS011;51709;54.912;8.316;2023-11-18T00:51:13;8.07;;;4.03;;
65130;SDS011;51709;54.912;8.316;2023-11-18T00:56:34;7.93;;;2.92;;
65130;SDS011;51709;54.912;8.316;2023-11-18T01:01:54;7.28;;;3.20;;
65130;SDS011;51709;54.912;8.316;2023-11-18T01:07:15;6.18;;;3.35;;
65130;SDS011;51709;54.912;8.316;2023-11-18T01:12:35;7.05;;;4.18;;
65130;SDS011;51709;54.912;8.316;2023-11-18T01:17:56;8.10;;;3.45;;
65130;SDS011;51709;54.912;8.316;2023-11-18T01:23:17;7.03;;;3.28;;
65130;SDS011;51709;54.912;8.316;2023-11-18T01:28:37;7.15;;;4.13;;
65130;SDS011;51709;54.912;8.316;2023-11-18T01:34:01;6.35;;;3.83;;
65130;SDS011;51709;54.912;8.316;2023-11-18T01:39:24;7.10;;;3.50;;
65130;SDS011;51709;54.912;8.316;2023-11-18T01:44:47;4.63;;;3.25;;
65130;SDS011;51709;54.912;8.316;2023-11-18T01:50:09;8.25;;;3.78;;
65130;SDS011;51709;54.912;8.316;2023-11-18T01:55:32;7.80;;;3.67;;
65130;SDS011;51709;54.912;8.316;2023-11-18T02:00:54;6.88;;;3.38;;
65130;SDS011;51709;54.912;8.316;2023-11-18T02:06:15;5.97;;;3.53;;
65130;SDS011;51709;54.912;8.316;2023-11-18T02:11:42;9.48;;;4.13;;
65130;SDS011;51709;54.912;8.316;2023-11-18T02:17:09;8.77;;;4.30;;
65130;SDS011;51709;54.912;8.316;2023-11-18T02:22:32;5.07;;;3.53;;
65130;SDS011;51709;54.912;8.316;2023-11-18T02:27:53;8.18;;;4.35;;
65130;SDS011;51709;54.912;8.316;2023-11-18T02:38:54;7.75;;;3.95;;
65130;SDS011;51709;54.912;8.316;2023-11-18T02:44:16;6.05;;;4.07;;
65130;SDS011;51709;54.912;8.316;2023-11-18T02:49:37;4.00;;;3.35;;
65130;SDS011;51709;54.912;8.316;2023-11-18T02:54:59;5.60;;;3.60;;
65130;SDS011;51709;54.912;8.316;2023-11-18T03:00:20;6.53;;;3.13;;
65130;SDS011;51709;54.912;8.316;2023-11-18T03:05:44;6.57;;;3.67;;
65130;SDS011;51709;54.912;8.316;2023-11-18T03:11:06;4.45;;;4.03;;
65130;SDS011;51709;54.912;8.316;2023-11-18T03:16:29;4.93;;;3.65;;
65130;SDS011;51709;54.912;8.316;2023-11-18T03:21:50;7.60;;;3.20;;
65130;SDS011;51709;54.912;8.316;2023-11-18T03:27:13;7.05;;;3.92;;
65130;SDS011;51709;54.912;8.316;2023-11-18T03:32:37;5.13;;;4.15;;
65130;SDS011;51709;54.912;8.316;2023-11-18T03:38:00;5.88;;;4.10;;
65130;SDS011;51709;54.912;8.316;2023-11-18T03:43:20;8.63;;;4.35;;
65130;SDS011;51709;54.912;8.316;2023-11-18T03:48:41;13.85;;;4.78;;
65130;SDS011;51709;54.912;8.316;2023-11-18T03:54:04;7.63;;;4.95;;
65130;SDS011;51709;54.912;8.316;2023-11-18T03:59:25;10.18;;;5.68;;
65130;SDS011;51709;54.912;8.316;2023-11-18T04:04:46;6.50;;;4.72;;
65130;SDS011;51709;54.912;8.316;2023-11-18T04:10:08;11.13;;;4.18;;
65130;SDS011;51709;54.912;8.316;2023-11-18T04:15:31;8.50;;;4.38;;
65130;SDS011;51709;54.912;8.316;2023-11-18T04:20:51;12.35;;;5.47;;
65130;SDS011;51709;54.912;8.316;2023-11-18T04:26:12;9.38;;;5.10;;
65130;SDS011;51709;54.912;8.316;2023-11-18T04:31:33;12.48;;;6.07;;
65130;SDS011;51709;54.912;8.316;2023-11-18T04:36:54;8.77;;;5.57;;
65130;SDS011;51709;54.912;8.316;2023-11-18T04:42:16;11.18;;;5.05;;
65130;SDS011;51709;54.912;8.316;2023-11-18T04:47:36;11.85;;;4.68;;
65130;SDS011;51709;54.912;8.316;2023-11-18T04:52:59;8.30;;;4.45;;
65130;SDS011;51709;54.912;8.316;2023-11-18T04:58:20;6.13;;;3.90;;
65130;SDS011;51709;54.912;8.316;2023-11-18T05:03:41;7.78;;;4.63;;
65130;SDS011;51709;54.912;8.316;2023-11-18T05:09:02;10.82;;;4.95;;
65130;SDS011;51709;54.912;8.316;2023-11-18T05:14:22;10.43;;;4.68;;
65130;SDS011;51709;54.912;8.316;2023-11-18T05:19:42;11.27;;;5.28;;
65130;SDS011;51709;54.912;8.316;2023-11-18T05:25:03;8.75;;;4.57;;
65130;SDS011;51709;54.912;8.316;2023-11-18T05:30:28;8.70;;;5.38;;
65130;SDS011;51709;54.912;8.316;2023-11-18T05:35:51;15.93;;;5.55;;
65130;SDS011;51709;54.912;8.316;2023-11-18T05:41:11;9.18;;;5.03;;
65130;SDS011;51709;54.912;8.316;2023-11-18T05:46:37;6.30;;;4.63;;
65130;SDS011;51709;54.912;8.316;2023-11-18T05:51:59;5.93;;;3.58;;
65130;SDS011;51709;54.912;8.316;2023-11-18T05:57:20;6.38;;;3.53;;
65130;SDS011;51709;54.912;8.316;2023-11-18T06:02:43;6.85;;;3.58;;
65130;SDS011;51709;54.912;8.316;2023-11-18T06:08:04;5.87;;;3.50;;
65130;SDS011;51709;54.912;8.316;2023-11-18T06:13:25;6.22;;;3.85;;
65130;SDS011;51709;54.912;8.316;2023-11-18T06:18:49;9.63;;;5.10;;
65130;SDS011;51709;54.912;8.316;2023-11-18T06:24:11;10.32;;;5.85;;
65130;SDS011;51709;54.912;8.316;2023-11-18T06:29:34;6.57;;;4.40;;
65130;SDS011;51709;54.912;8.316;2023-11-18T06:34:55;8.15;;;4.57;;
65130;SDS011;51709;54.912;8.316;2023-11-18T06:40:15;10.93;;;5.85;;
65130;SDS011;51709;54.912;8.316;2023-11-18T06:45:42;8.00;;;5.47;;
65130;SDS011;51709;54.912;8.316;2023-11-18T06:51:03;13.73;;;7.47;;
65130;SDS011;51709;54.912;8.316;2023-11-18T06:56:25;12.52;;;5.53;;
65130;SDS011;51709;54.912;8.316;2023-11-18T07:01:47;8.82;;;6.07;;
65130;SDS011;51709;54.912;8.316;2023-11-18T07:07:10;7.90;;;5.20;;
65130;SDS011;51709;54.912;8.316;2023-11-18T07:12:33;8.48;;;5.50;;
65130;SDS011;51709;54.912;8.316;2023-11-18T07:17:54;8.60;;;5.70;;
65130;SDS011;51709;54.912;8.316;2023-11-18T07:23:17;14.15;;;6.40;;
65130;SDS011;51709;54.912;8.316;2023-11-18T07:28:37;11.07;;;6.60;;
65130;SDS011;51709;54.912;8.316;2023-11-18T07:33:59;12.10;;;6.80;;
65130;SDS011;51709;54.912;8.316;2023-11-18T07:39:19;9.15;;;6.00;;
65130;SDS011;51709;54.912;8.316;2023-11-18T07:45:00;10.52;;;5.32;;
65130;SDS011;51709;54.912;8.316;2023-11-18T07:50:24;13.30;;;5.72;;
65130;SDS011;51709;54.912;8.316;2023-11-18T07:55:45;11.38;;;5.97;;
65130;SDS011;51709;54.912;8.316;2023-11-18T08:01:05;7.95;;;5.47;;
65130;SDS011;51709;54.912;8.316;2023-11-18T08:06:29;11.82;;;5.03;;
65130;SDS011;51709;54.912;8.316;2023-11-18T08:11:52;10.83;;;5.77;;
65130;SDS011;51709;54.912;8.316;2023-11-18T08:17:15;10.70;;;6.05;;
65130;SDS011;51709;54.912;8.316;2023-11-18T08:22:36;6.85;;;4.63;;
65130;SDS011;51709;54.912;8.316;2023-11-18T08:27:57;9.00;;;5.05;;
65130;SDS011;51709;54.912;8.316;2023-11-18T08:33:19;8.90;;;5.50;;
65130;SDS011;51709;54.912;8.316;2023-11-18T08:38:40;8.77;;;5.30;;
65130;SDS011;51709;54.912;8.316;2023-11-18T08:44:00;7.20;;;4.95;;
65130;SDS011;51709;54.912;8.316;2023-11-18T08:49:42;7.43;;;5.07;;
65130;SDS011;51709;54.912;8.316;2023-11-18T08:55:06;6.47;;;3.78;;
65130;SDS011;51709;54.912;8.316;2023-11-18T09:00:35;7.95;;;4.32;;
65130;SDS011;51709;54.912;8.316;2023-11-18T09:06:22;6.00;;;3.65;;
65130;SDS011;51709;54.912;8.316;2023-11-18T09:11:46;7.00;;;4.43;;
65130;SDS011;51709;54.912;8.316;2023-11-18T09:17:08;7.50;;;4.43;;
65130;SDS011;51709;54.912;8.316;2023-11-18T09:22:29;7.63;;;4.28;;
65130;SDS011;51709;54.912;8.316;2023-11-18T09:27:51;5.88;;;4.20;;
65130;SDS011;51709;54.912;8.316;2023-11-18T09:33:11;7.80;;;4.70;;
65130;SDS011;51709;54.912;8.316;2023-11-18T09:38:35;8.00;;;4.85;;
65130;SDS011;51709;54.912;8.316;2023-11-18T09:43:56;6.03;;;4.32;;
65130;SDS011;51709;54.912;8.316;2023-11-18T09:54:56;7.55;;;4.25;;
65130;SDS011;51709;54.912;8.316;2023-11-18T10:00:23;5.10;;;3.92;;
65130;SDS011;51709;54.912;8.316;2023-11-18T10:05:53;8.02;;;4.20;;
65130;SDS011;51709;54.912;8.316;2023-11-18T10:11:16;6.32;;;4.43;;
65130;SDS011;51709;54.912;8.316;2023-11-18T10:16:36;8.45;;;5.07;;
65130;SDS011;51709;54.912;8.316;2023-11-18T10:21:58;6.47;;;4.90;;
65130;SDS011;51709;54.912;8.316;2023-11-18T10:27:24;6.78;;;4.57;;
65130;SDS011;51709;54.912;8.316;2023-11-18T10:33:00;7.75;;;4.47;;
65130;SDS011;51709;54.912;8.316;2023-11-18T10:38:26;8.02;;;5.22;;
65130;SDS011;51709;54.912;8.316;2023-11-18T10:43:49;6.03;;;4.55;;
65130;SDS011;51709;54.912;8.316;2023-11-18T10:49:29;7.32;;;4.30;;
65130;SDS011;51709;54.912;8.316;2023-11-18T10:54:58;5.97;;;4.80;;
65130;SDS011;51709;54.912;8.316;2023-11-18T11:00:18;6.53;;;4.68;;
65130;SDS011;51709;54.912;8.316;2023-11-18T11:05:40;8.60;;;4.35;;
65130;SDS011;51709;54.912;8.316;2023-11-18T11:11:03;7.95;;;4.78;;
65130;SDS011;51709;54.912;8.316;2023-11-18T11:16:31;7.57;;;4.85;;
65130;SDS011;51709;54.912;8.316;2023-11-18T11:22:05;11.95;;;5.85;;
65130;SDS011;51709;54.912;8.316;2023-11-18T11:27:28;7.55;;;5.28;;
65130;SDS011;51709;54.912;8.316;2023-11-18T11:33:13;8.23;;;5.32;;
65130;SDS011;51709;54.912;8.316;2023-11-18T11:38:42;10.63;;;6.60;;
65130;SDS011;51709;54.912;8.316;2023-11-18T11:44:07;7.90;;;5.07;;
65130;SDS011;51709;54.912;8.316;2023-11-18T11:49:30;9.43;;;5.75;;
65130;SDS011;51709;54.912;8.316;2023-11-18T11:55:07;10.15;;;6.45;;
65130;SDS011;51709;54.912;8.316;2023-11-18T12:00:32;9.15;;;5.05;;
65130;SDS011;51709;54.912;8.316;2023-11-18T12:05:55;7.00;;;4.70;;
65130;SDS011;51709;54.912;8.316;2023-11-18T12:11:17;8.88;;;5.28;;
65130;SDS011;51709;54.912;8.316;2023-11-18T12:22:22;8.75;;;5.53;;
65130;SDS011;51709;54.912;8.316;2023-11-18T12:27:54;7.43;;;5.47;;
65130;SDS011;51709;54.912;8.316;2023-11-18T12:33:19;8.40;;;5.82;;
65130;SDS011;51709;54.912;8.316;2023-11-18T12:44:37;12.40;;;6.18;;
65130;SDS011;51709;54.912;8.316;2023-11-18T12:50:06;10.25;;;6.97;;
65130;SDS011;51709;54.912;8.316;2023-11-18T12:55:37;11.10;;;7.13;;
65130;SDS011;51709;54.912;8.316;2023-11-18T13:00:59;11.02;;;6.57;;
65130;SDS011;51709;54.912;8.316;2023-11-18T13:06:20;13.40;;;7.55;;
65130;SDS011;51709;54.912;8.316;2023-11-18T13:11:45;14.52;;;8.55;;
65130;SDS011;51709;54.912;8.316;2023-11-18T13:17:10;14.63;;;8.48;;
65130;SDS011;51709;54.912;8.316;2023-11-18T13:22:32;15.43;;;7.10;;
65130;SDS011;51709;54.912;8.316;2023-11-18T13:28:09;14.53;;;8.17;;
65130;SDS011;51709;54.912;8.316;2023-11-18T13:33:31;12.45;;;7.47;;
65130;SDS011;51709;54.912;8.316;2023-11-18T13:38:51;13.80;;;8.07;;
65130;SDS011;51709;54.912;8.316;2023-11-18T13:44:12;13.02;;;7.15;;
65130;SDS011;51709;54.912;8.316;2023-11-18T13:49:33;18.63;;;6.18;;
65130;SDS011;51709;54.912;8.316;2023-11-18T13:54:58;10.90;;;7.40;;
65130;SDS011;51709;54.912;8.316;2023-11-18T14:00:21;10.93;;;7.03;;
65130;SDS011;51709;54.912;8.316;2023-11-18T14:05:43;11.60;;;7.17;;
65130;SDS011;51709;54.912;8.316;2023-11-18T14:11:08;13.48;;;8.38;;
65130;SDS011;51709;54.912;8.316;2023-11-18T14:16:36;14.90;;;7.53;;
65130;SDS011;51709;54.912;8.316;2023-11-18T14:21:58;16.15;;;7.20;;
65130;SDS011;51709;54.912;8.316;2023-11-18T14:27:18;16.88;;;8.63;;
65130;SDS011;51709;54.912;8.316;2023-11-18T14:32:39;19.52;;;9.43;;
65130;SDS011;51709;54.912;8.316;2023-11-18T14:38:00;16.77;;;8.35;;
65130;SDS011;51709;54.912;8.316;2023-11-18T14:43:22;18.27;;;9.23;;
65130;SDS011;51709;54.912;8.316;2023-11-18T14:48:43;12.07;;;7.32;;
65130;SDS011;51709;54.912;8.316;2023-11-18T14:54:03;12.23;;;8.27;;
65130;SDS011;51709;54.912;8.316;2023-11-18T14:59:26;16.48;;;8.32;;
65130;SDS011;51709;54.912;8.316;2023-11-18T15:04:47;15.15;;;9.07;;
65130;SDS011;51709;54.912;8.316;2023-11-18T15:10:08;12.65;;;7.30;;
65130;SDS011;51709;54.912;8.316;2023-11-18T15:15:30;11.88;;;6.97;;
65130;SDS011;51709;54.912;8.316;2023-11-18T15:20:52;15.65;;;9.88;;
65130;SDS011;51709;54.912;8.316;2023-11-18T15:26:12;16.38;;;6.95;;
65130;SDS011;51709;54.912;8.316;2023-11-18T15:31:33;13.02;;;7.28;;
65130;SDS011;51709;54.912;8.316;2023-11-18T15:36:53;15.45;;;6.78;;
65130;SDS011;51709;54.912;8.316;2023-11-18T15:42:14;11.07;;;6.70;;
65130;SDS011;51709;54.912;8.316;2023-11-18T15:47:35;12.23;;;6.50;;
65130;SDS011;51709;54.912;8.316;2023-11-18T15:52:57;13.40;;;7.50;;
65130;SDS011;51709;54.912;8.316;2023-11-18T15:58:18;12.73;;;7.63;;
65130;SDS011;51709;54.912;8.316;2023-11-18T16:03:40;16.38;;;7.00;;
65130;SDS011;51709;54.912;8.316;2023-11-18T16:09:01;12.63;;;6.63;;
65130;SDS011;51709;54.912;8.316;2023-11-18T16:14:23;14.30;;;7.93;;
65130;SDS011;51709;54.912;8.316;2023-11-18T16:19:45;10.70;;;6.32;;
65130;SDS011;51709;54.912;8.316;2023-11-18T16:25:06;19.10;;;7.10;;
65130;SDS011;51709;54.912;8.316;2023-11-18T16:30:27;16.83;;;8.43;;
65130;SDS011;51709;54.912;8.316;2023-11-18T16:35:53;14.95;;;8.35;;
65130;SDS011;51709;54.912;8.316;2023-11-18T16:41:15;14.38;;;7.35;;
65130;SDS011;51709;54.912;8.316;2023-11-18T16:46:37;18.30;;;8.05;;
65130;SDS011;51709;54.912;8.316;2023-11-18T16:52:00;13.85;;;7.95;;
65130;SDS011;51709;54.912;8.316;2023-11-18T16:57:24;14.13;;;7.40;;
65130;SDS011;51709;54.912;8.316;2023-11-18T17:02:46;12.82;;;7.78;;
65130;SDS011;51709;54.912;8.316;2023-11-18T17:08:11;17.80;;;8.50;;
65130;SDS011;51709;54.912;8.316;2023-11-18T17:13:33;21.67;;;9.90;;
65130;SDS011;51709;54.912;8.316;2023-11-18T17:18:53;17.10;;;9.00;;
65130;SDS011;51709;54.912;8.316;2023-11-18T17:24:15;17.33;;;9.35;;
65130;SDS011;51709;54.912;8.316;2023-11-18T17:29:35;21.45;;;9.57;;
65130;SDS011;51709;54.912;8.316;2023-11-18T17:34:57;18.65;;;9.85;;
65130;SDS011;51709;54.912;8.316;2023-11-18T17:40:27;20.65;;;10.48;;
65130;SDS011;51709;54.912;8.316;2023-11-18T17:45:48;18.75;;;10.65;;
65130;SDS011;51709;54.912;8.316;2023-11-18T17:51:09;16.90;;;9.88;;
65130;SDS011;51709;54.912;8.316;2023-11-18T17:56:30;18.10;;;10.40;;
65130;SDS011;51709;54.912;8.316;2023-11-18T18:01:51;19.60;;;10.20;;
65130;SDS011;51709;54.912;8.316;2023-11-18T18:07:14;20.63;;;9.75;;
65130;SDS011;51709;54.912;8.316;2023-11-18T18:12:34;17.45;;;9.95;;
65130;SDS011;51709;54.912;8.316;2023-11-18T18:17:55;20.17;;;8.93;;
65130;SDS011;51709;54.912;8.316;2023-11-18T18:23:16;19.10;;;10.30;;
65130;SDS011;51709;54.912;8.316;2023-11-18T18:28:37;19.17;;;9.68;;
65130;SDS011;51709;54.912;8.316;2023-11-18T18:33:58;14.65;;;9.02;;
65130;SDS011;51709;54.912;8.316;2023-11-18T18:39:18;21.20;;;9.88;;
65130;SDS011;51709;54.912;8.316;2023-11-18T18:44:39;20.23;;;9.52;;
65130;SDS011;51709;54.912;8.316;2023-11-18T18:49:59;22.98;;;10.38;;
65130;SDS011;51709;54.912;8.316;2023-11-18T18:55:20;23.48;;;10.63;;
65130;SDS011;51709;54.912;8.316;2023-11-18T19:00:40;21.95;;;9.93;;
65130;SDS011;51709;54.912;8.316;2023-11-18T19:06:02;20.98;;;10.60;;
65130;SDS011;51709;54.912;8.316;2023-11-18T19:11:23;20.48;;;10.25;;
65130;SDS011;51709;54.912;8.316;2023-11-18T19:16:44;18.58;;;10.95;;
65130;SDS011;51709;54.912;8.316;2023-11-18T19:22:04;21.95;;;10.90;;
65130;SDS011;51709;54.912;8.316;2023-11-18T19:27:26;21.77;;;12.10;;
65130;SDS011;51709;54.912;8.316;2023-11-18T19:32:47;19.88;;;9.98;;
65130;SDS011;51709;54.912;8.316;2023-11-18T19:38:07;25.48;;;10.05;;
65130;SDS011;51709;54.912;8.316;2023-11-18T19:43:29;17.52;;;9.32;;
65130;SDS011;51709;54.912;8.316;2023-11-18T19:48:50;27.15;;;11.43;;
65130;SDS011;51709;54.912;8.316;2023-11-18T19:54:10;19.40;;;9.00;;
65130;SDS011;51709;54.912;8.316;2023-11-18T19:59:31;15.52;;;8.18;;
65130;SDS011;51709;54.912;8.316;2023-11-18T20:04:53;17.15;;;8.15;;
65130;SDS011;51709;54.912;8.316;2023-11-18T20:10:13;12.75;;;7.55;;
65130;SDS011;51709;54.912;8.316;2023-11-18T20:15:35;17.77;;;8.50;;
65130;SDS011;51709;54.912;8.316;2023-11-18T20:20:58;12.50;;;6.63;;
65130;SDS011;51709;54.912;8.316;2023-11-18T20:26:18;20.80;;;8.18;;
65130;SDS011;51709;54.912;8.316;2023-11-18T20:31:39;13.40;;;7.35;;
65130;SDS011;51709;54.912;8.316;2023-11-18T20:37:00;14.35;;;7.53;;
65130;SDS011;51709;54.912;8.316;2023-11-18T20:42:21;15.48;;;7.38;;
65130;SDS011;51709;54.912;8.316;2023-11-18T20:47:42;10.02;;;4.88;;
65130;SDS011;51709;54.912;8.316;2023-11-18T20:53:03;18.73;;;7.93;;
65130;SDS011;51709;54.912;8.316;2023-11-18T20:58:24;13.98;;;8.00;;
65130;SDS011;51709;54.912;8.316;2023-11-18T21:03:46;15.05;;;7.72;;
65130;SDS011;51709;54.912;8.316;2023-11-18T21:09:07;13.52;;;7.85;;
65130;SDS011;51709;54.912;8.316;2023-11-18T21:14:28;11.25;;;7.22;;
65130;SDS011;51709;54.912;8.316;2023-11-18T21:19:51;11.27;;;6.70;;
65130;SDS011;51709;54.912;8.316;2023-11-18T21:25:15;11.27;;;6.65;;
65130;SDS011;51709;54.912;8.316;2023-11-18T21:30:36;11.93;;;6.43;;
65130;SDS011;51709;54.912;8.316;2023-11-18T21:35:57;13.38;;;7.38;;
65130;SDS011;51709;54.912;8.316;2023-11-18T21:41:17;9.73;;;5.97;;
65130;SDS011;51709;54.912;8.316;2023-11-18T21:46:38;9.32;;;6.07;;
65130;SDS011;51709;54.912;8.316;2023-11-18T21:51:58;12.82;;;6.10;;
65130;SDS011;51709;54.912;8.316;2023-11-18T21:57:19;10.15;;;6.53;;
65130;SDS011;51709;54.912;8.316;2023-11-18T22:02:41;9.60;;;5.82;;
65130;SDS011;51709;54.912;8.316;2023-11-18T22:08:06;9.60;;;6.05;;
65130;SDS011;51709;54.912;8.316;2023-11-18T22:13:27;11.10;;;5.10;;
65130;SDS011;51709;54.912;8.316;2023-11-18T22:18:48;9.68;;;5.80;;
65130;SDS011;51709;54.912;8.316;2023-11-18T22:24:09;13.18;;;5.80;;
65130;SDS011;51709;54.912;8.316;2023-11-18T22:29:30;11.30;;;6.03;;
65130;SDS011;51709;54.912;8.316;2023-11-18T22:34:51;6.55;;;5.15;;
65130;SDS011;51709;54.912;8.316;2023-11-18T22:40:13;7.43;;;4.97;;
65130;SDS011;51709;54.912;8.316;2023-11-18T22:45:36;6.90;;;4.82;;
65130;SDS011;51709;54.912;8.316;2023-11-18T22:50:57;9.82;;;5.68;;
65130;SDS011;51709;54.912;8.316;2023-11-18T22:56:18;9.48;;;6.18;;
65130;SDS011;51709;54.912;8.316;2023-11-18T23:01:40;7.88;;;4.95;;
65130;SDS011;51709;54.912;8.316;2023-11-18T23:07:03;11.60;;;5.57;;
65130;SDS011;51709;54.912;8.316;2023-11-18T23:12:26;9.30;;;5.10;;
65130;SDS011;51709;54.912;8.316;2023-11-18T23:17:47;4.93;;;3.63;;
65130;SDS011;51709;54.912;8.316;2023-11-18T23:23:10;9.70;;;5.60;;
65130;SDS011;51709;54.912;8.316;2023-11-18T23:28:32;6.97;;;5.10;;
65130;SDS011;51709;54.912;8.316;2023-11-18T23:33:53;8.68;;;4.78;;
65130;SDS011;51709;54.912;8.316;2023-11-18T23:39:14;9.30;;;5.13;;
65130;SDS011;51709;54.912;8.316;2023-11-18T23:44:36;13.02;;;5.22;;
65130;SDS011;51709;54.912;8.316;2023-11-18T23:49:57;9.00;;;4.88;;
65130;SDS011;51709;54.912;8.316;2023-11-18T23:55:17;5.32;;;4.28;;
